createdAt,value
2022-09-24T00:00:32.712Z,100222.30
2022-09-24T00:03:02.557Z,100216.28
2022-09-24T00:05:34.169Z,100213.03
2022-09-24T00:08:03.757Z,100208.12
2022-09-24T00:10:35.336Z,100208.91
2022-09-24T00:13:04.122Z,100210.59
2022-09-24T00:15:38.788Z,100206.20
2022-09-24T00:18:08.653Z,100205.81
2022-09-24T00:20:39.673Z,100205.51
2022-09-24T00:23:10.737Z,100209.91
2022-09-24T00:26:03.295Z,100208.66
2022-09-24T00:28:34.335Z,100213.74
2022-09-24T00:31:07.200Z,100206.27
2022-09-24T00:33:37.054Z,100198.95
2022-09-24T00:36:07.041Z,100206.50
2022-09-24T00:38:36.913Z,100205.26
2022-09-24T00:41:07.026Z,100200.87
2022-09-24T00:43:39.152Z,100193.08
2022-09-24T00:46:11.831Z,100190.39
2022-09-24T00:48:42.995Z,100189.00
2022-09-24T00:51:15.845Z,100188.54
2022-09-24T00:53:48.469Z,100180.14
2022-09-24T00:56:20.409Z,100177.76
2022-09-24T00:58:54.571Z,100174.43
2022-09-24T01:01:26.319Z,100174.28
2022-09-24T01:03:59.269Z,100179.75
2022-09-24T01:06:29.145Z,100176.91
2022-09-24T01:09:00.981Z,100166.73
2022-09-24T01:11:57.678Z,100167.42
2022-09-24T01:14:53.152Z,100157.95
2022-09-24T01:17:28.531Z,100161.42
2022-09-24T01:20:20.656Z,100165.20
2022-09-24T01:23:16.723Z,100159.49
2022-09-24T01:25:59.677Z,100164.62
2022-09-24T01:28:39.552Z,100160.70
2022-09-24T01:31:24.453Z,100159.49
2022-09-24T01:33:57.347Z,100158.34
2022-09-24T01:36:29.089Z,100158.34
2022-09-24T01:39:00.515Z,100157.18
2022-09-24T01:41:30.498Z,100153.33
2022-09-24T01:44:02.763Z,100156.86
2022-09-24T01:46:33.777Z,100152.55
2022-09-24T01:49:03.650Z,100156.86
2022-09-24T01:51:51.575Z,100153.66
2022-09-24T01:54:30.420Z,100150.11
2022-09-24T01:57:12.464Z,100147.84
2022-09-24T01:59:57.334Z,100143.56
2022-09-24T02:02:35.845Z,100151.50
2022-09-24T02:05:27.353Z,100137.94
2022-09-24T02:07:59.909Z,100137.94
2022-09-24T02:10:33.750Z,100139.63
2022-09-24T02:13:06.618Z,100138.46
2022-09-24T02:15:39.940Z,100134.38
2022-09-24T02:18:12.710Z,100133.53
2022-09-24T02:20:45.146Z,100132.07
2022-09-24T02:23:16.705Z,100129.93
2022-09-24T02:25:53.734Z,100133.75
2022-09-24T02:28:23.645Z,100134.15
2022-09-24T02:30:56.592Z,100128.21
2022-09-24T02:33:46.689Z,100129.22
2022-09-24T02:36:17.435Z,100135.16
2022-09-24T02:38:54.722Z,100125.06
2022-09-24T02:41:26.460Z,100113.59
2022-09-24T02:43:58.945Z,100111.81
2022-09-24T02:46:28.859Z,100111.81
2022-09-24T02:48:58.752Z,100110.55
2022-09-24T02:51:28.653Z,100109.09
2022-09-24T02:53:58.618Z,100112.32
2022-09-24T02:56:29.072Z,100112.32
2022-09-24T02:58:59.148Z,100107.81
2022-09-24T03:01:29.321Z,100106.34
2022-09-24T03:03:59.279Z,100107.89
2022-09-24T03:06:30.415Z,100109.52
2022-09-24T03:09:02.236Z,100112.81
2022-09-24T03:11:33.361Z,100105.87
2022-09-24T03:14:03.489Z,100108.98
2022-09-24T03:16:33.847Z,100104.75
2022-09-24T03:19:03.633Z,100111.22
2022-09-24T03:21:33.507Z,100104.51
2022-09-24T03:24:05.203Z,100101.16
2022-09-24T03:26:34.007Z,100101.16
2022-09-24T03:29:04.271Z,100098.42
2022-09-24T03:31:36.399Z,100103.43
2022-09-24T03:34:06.690Z,100097.17
2022-09-24T03:36:36.553Z,100092.63
2022-09-24T03:39:06.377Z,100087.30
2022-09-24T03:41:36.221Z,100083.21
2022-09-24T03:44:07.437Z,100078.43
2022-09-24T03:46:37.364Z,100078.43
2022-09-24T03:49:07.160Z,100080.34
2022-09-24T03:51:37.697Z,100067.01
2022-09-24T03:54:07.375Z,100078.61
2022-09-24T03:56:37.263Z,100077.30
2022-09-24T03:59:07.126Z,100079.55
2022-09-24T04:01:37.491Z,100081.41
2022-09-24T04:04:07.113Z,100080.64
2022-09-24T04:06:37.270Z,100076.84
2022-09-24T04:09:06.997Z,100075.15
2022-09-24T04:11:36.852Z,100075.78
2022-09-24T04:14:11.940Z,100075.78
2022-09-24T04:16:41.826Z,100075.91
2022-09-24T04:19:11.835Z,100074.40
2022-09-24T04:21:42.001Z,100076.08
2022-09-24T04:24:11.771Z,100067.11
2022-09-24T04:26:41.564Z,100062.81
2022-09-24T04:29:11.147Z,100056.25
2022-09-24T04:31:41.112Z,100062.47
2022-09-24T04:34:11.853Z,100056.38
2022-09-24T04:36:41.716Z,100058.28
2022-09-24T04:39:13.227Z,100056.50
2022-09-24T04:41:43.029Z,100057.35
2022-09-24T04:44:14.492Z,100057.36
2022-09-24T04:46:44.150Z,100056.34
2022-09-24T04:49:15.756Z,100059.73
2022-09-24T04:51:45.543Z,100054.91
2022-09-24T04:54:15.062Z,100057.23
2022-09-24T04:56:44.855Z,100054.48
2022-09-24T04:59:14.626Z,100053.30
2022-09-24T05:01:44.541Z,100049.82
2022-09-24T05:04:14.420Z,100048.84
2022-09-24T05:06:44.292Z,100048.84
2022-09-24T05:09:14.474Z,100046.01
2022-09-24T05:11:44.457Z,100049.86
2022-09-24T05:14:13.978Z,100051.58
2022-09-24T05:16:43.773Z,100030.25
2022-09-24T05:19:13.290Z,100046.06
2022-09-24T05:21:43.107Z,100041.46
2022-09-24T05:24:13.029Z,100040.27
2022-09-24T05:27:00.979Z,100040.27
2022-09-24T05:29:30.751Z,100034.75
2022-09-24T05:32:03.744Z,100036.81
2022-09-24T05:34:33.859Z,100035.88
2022-09-24T05:37:04.718Z,100035.20
2022-09-24T05:39:34.649Z,100043.55
2022-09-24T05:42:04.536Z,100043.55
2022-09-24T05:44:34.640Z,100040.46
2022-09-24T05:47:05.800Z,100035.98
2022-09-24T05:49:34.960Z,100039.81
2022-09-24T05:52:04.843Z,100044.72
2022-09-24T05:54:34.629Z,100049.48
2022-09-24T05:57:04.492Z,100046.73
2022-09-24T05:59:35.311Z,100044.41
2022-09-24T06:02:06.471Z,100048.89
2022-09-24T06:04:38.223Z,100045.43
2022-09-24T06:07:07.739Z,100045.89
2022-09-24T06:09:39.471Z,100051.25
2022-09-24T06:12:12.983Z,100050.22
2022-09-24T06:14:42.794Z,100053.38
2022-09-24T06:17:12.614Z,100052.16
2022-09-24T06:19:42.993Z,100052.16
2022-09-24T06:22:12.793Z,100048.73
2022-09-24T06:24:42.694Z,100053.80
2022-09-24T06:27:13.041Z,100047.45
2022-09-24T06:29:42.545Z,100056.64
2022-09-24T06:32:12.358Z,100050.58
2022-09-24T06:34:42.161Z,100056.09
2022-09-24T06:37:12.012Z,100051.33
2022-09-24T06:39:41.809Z,100056.64
2022-09-24T06:42:12.567Z,100049.45
2022-09-24T06:44:42.454Z,100048.03
2022-09-24T06:47:12.744Z,100047.77
2022-09-24T06:49:42.533Z,100047.77
2022-09-24T06:52:12.051Z,100046.18
2022-09-24T06:54:41.859Z,100048.73
2022-09-24T06:57:11.525Z,100040.09
2022-09-24T06:59:41.407Z,100041.85
2022-09-24T07:02:11.335Z,100038.47
2022-09-24T07:04:41.239Z,100044.13
2022-09-24T07:07:29.057Z,100043.13
2022-09-24T07:10:01.840Z,100043.13
2022-09-24T07:12:33.662Z,100044.88
2022-09-24T07:15:04.638Z,100048.30
2022-09-24T07:17:34.205Z,100050.79
2022-09-24T07:20:05.938Z,100052.95
2022-09-24T07:22:41.056Z,100061.19
2022-09-24T07:25:13.564Z,100061.42
2022-09-24T07:27:43.361Z,100067.56
2022-09-24T07:30:13.378Z,100065.77
2022-09-24T07:32:43.828Z,100069.84
2022-09-24T07:35:17.208Z,100069.84
2022-09-24T07:37:47.375Z,100066.44
2022-09-24T07:40:17.490Z,100073.65
2022-09-24T07:42:50.311Z,100073.65
2022-09-24T07:45:19.904Z,100074.00
2022-09-24T07:47:51.208Z,100074.62
2022-09-24T07:50:25.587Z,100079.05
2022-09-24T07:52:55.629Z,100081.89
2022-09-24T07:55:26.804Z,100081.89
2022-09-24T07:57:57.440Z,100076.77
2022-09-24T08:00:27.629Z,100084.41
2022-09-24T08:02:58.493Z,100079.05
2022-09-24T08:05:34.652Z,100074.09
2022-09-24T08:08:16.663Z,100072.84
2022-09-24T08:10:50.750Z,100074.06
2022-09-24T08:13:25.348Z,100066.86
2022-09-24T08:16:00.699Z,100071.27
2022-09-24T08:18:47.248Z,100069.91
2022-09-24T08:21:17.904Z,100063.38
2022-09-24T08:23:48.442Z,100064.22
2022-09-24T08:26:20.035Z,100055.12
2022-09-24T08:28:51.542Z,100059.63
2022-09-24T08:31:21.643Z,100051.49
2022-09-24T08:33:51.519Z,100049.36
2022-09-24T08:36:21.036Z,100047.67
2022-09-24T08:38:52.365Z,100046.63
2022-09-24T08:41:53.918Z,100042.79
2022-09-24T08:44:50.174Z,100036.91
2022-09-24T08:47:30.208Z,100030.67
2022-09-24T08:50:11.631Z,100034.70
2022-09-24T08:52:59.537Z,100032.90
2022-09-24T08:55:41.408Z,100033.17
2022-09-24T08:58:20.064Z,100034.80
2022-09-24T09:01:12.876Z,100035.39
2022-09-24T09:03:48.704Z,100031.56
2022-09-24T09:06:40.958Z,100035.03
2022-09-24T09:09:19.905Z,100035.12
2022-09-24T09:11:53.138Z,100033.37
2022-09-24T09:14:43.652Z,100034.17
2022-09-24T09:17:32.797Z,100034.45
2022-09-24T09:20:07.655Z,100034.45
2022-09-24T09:22:41.468Z,100029.52
2022-09-24T09:25:27.184Z,100023.77
2022-09-24T09:28:07.031Z,100030.31
2022-09-24T09:30:41.533Z,100029.38
2022-09-24T09:33:22.699Z,100026.38
2022-09-24T09:35:55.619Z,100021.16
2022-09-24T09:38:36.812Z,100023.03
2022-09-24T09:41:19.358Z,100025.55
2022-09-24T09:46:30.815Z,100027.41
2022-09-24T09:49:09.028Z,100028.97
2022-09-24T09:51:42.202Z,100030.04
2022-09-24T09:54:17.231Z,100029.05
2022-09-24T09:56:51.382Z,100031.17
2022-09-24T09:59:29.442Z,100029.41
2022-09-24T10:01:56.587Z,100033.45
2022-09-24T10:04:40.254Z,100037.09
2022-09-24T10:07:15.521Z,100036.06
2022-09-24T10:09:46.962Z,100033.52
2022-09-24T10:12:20.850Z,100033.14
2022-09-24T10:15:08.592Z,100025.09
2022-09-24T10:17:40.071Z,100027.03
2022-09-24T10:20:19.756Z,100025.21
2022-09-24T10:22:52.235Z,100021.91
2022-09-24T10:25:26.188Z,100021.40
2022-09-24T10:28:00.585Z,100018.73
2022-09-24T10:30:36.261Z,100029.29
2022-09-24T10:33:08.856Z,100028.61
2022-09-24T10:35:39.506Z,100026.81
2022-09-24T10:38:21.524Z,100026.06
2022-09-24T10:40:55.545Z,100024.66
2022-09-24T10:43:25.059Z,100008.17
2022-09-24T10:46:04.339Z,100010.36
2022-09-24T10:48:46.494Z,100016.66
2022-09-24T10:51:34.844Z,100008.24
2022-09-24T10:54:19.057Z,100011.37
2022-09-24T10:56:57.257Z,100012.08
2022-09-24T10:59:32.886Z,100009.92
2022-09-24T11:02:14.612Z,100010.56
2022-09-24T11:04:59.123Z,100014.20
2022-09-24T11:07:43.457Z,100021.57
2022-09-24T11:10:24.464Z,100023.30
2022-09-24T11:13:09.151Z,100014.05
2022-09-24T11:16:14.299Z,100010.50
2022-09-24T11:19:05.665Z,100012.34
2022-09-24T11:21:38.496Z,100013.86
2022-09-24T11:24:14.111Z,99994.75
2022-09-24T11:27:09.165Z,100007.21
2022-09-24T11:30:00.338Z,100007.21
2022-09-24T11:32:40.835Z,100001.70
2022-09-24T11:35:29.437Z,100002.97
2022-09-24T11:38:08.218Z,99996.36
2022-09-24T11:40:43.827Z,100000.20
2022-09-24T11:43:25.422Z,100000.20
2022-09-24T11:46:22.422Z,99995.50
2022-09-24T11:49:09.398Z,99999.20
2022-09-24T11:51:51.337Z,100002.19
2022-09-24T11:54:28.725Z,99998.50
2022-09-24T11:57:01.557Z,99991.47
2022-09-24T11:59:56.343Z,99990.73
2022-09-24T12:02:43.075Z,99986.22
2022-09-24T12:05:21.145Z,99983.18
2022-09-24T12:08:13.954Z,99972.81
2022-09-24T12:10:56.971Z,99972.81
2022-09-24T12:13:39.118Z,99979.30
2022-09-24T12:16:23.049Z,99975.93
2022-09-24T12:19:22.766Z,99985.23
2022-09-24T12:21:57.976Z,99986.19
2022-09-24T12:24:42.739Z,99959.11
2022-09-24T12:27:15.342Z,99959.11
2022-09-24T12:30:27.167Z,99975.12
2022-09-24T12:33:09.854Z,99966.80
2022-09-24T12:35:58.114Z,99964.91
2022-09-24T12:38:45.309Z,99962.67
2022-09-24T12:41:39.251Z,99957.88
2022-09-24T12:44:21.076Z,99949.40
2022-09-24T12:46:55.558Z,99945.53
2022-09-24T12:49:31.856Z,99939.73
2022-09-24T12:52:29.609Z,99944.70
2022-09-24T12:55:02.522Z,99942.30
2022-09-24T12:57:44.247Z,99943.16
2022-09-24T13:00:37.762Z,99942.52
2022-09-24T13:03:08.966Z,99942.24
2022-09-24T13:05:47.598Z,99942.77
2022-09-24T13:08:24.364Z,99938.89
2022-09-24T13:11:03.891Z,99939.41
2022-09-24T13:13:42.677Z,99943.52
2022-09-24T13:16:23.415Z,99945.20
2022-09-24T13:18:56.115Z,99934.45
2022-09-24T13:21:28.918Z,99935.61
2022-09-24T13:23:59.154Z,99938.02
2022-09-24T13:26:33.655Z,99939.15
2022-09-24T13:29:05.804Z,99935.63
2022-09-24T13:31:42.184Z,99927.51
2022-09-24T13:34:23.445Z,99933.84
2022-09-24T13:37:02.130Z,99923.26
2022-09-24T13:39:46.495Z,99930.31
2022-09-24T13:42:39.990Z,99926.59
2022-09-24T13:45:23.941Z,99923.30
2022-09-24T13:48:02.544Z,99921.05
2022-09-24T13:50:40.384Z,99918.50
2022-09-24T13:53:19.362Z,99914.17
2022-09-24T13:55:54.290Z,99920.76
2022-09-24T13:58:30.112Z,99919.66
2022-09-24T14:01:06.336Z,99920.30
2022-09-24T14:03:37.097Z,99919.92
2022-09-24T14:06:15.331Z,99921.83
2022-09-24T14:08:48.061Z,99921.83
2022-09-24T14:11:27.457Z,99917.19
2022-09-24T14:13:58.933Z,99918.92
2022-09-24T14:16:36.995Z,99914.47
2022-09-24T14:19:08.009Z,99915.81
2022-09-24T14:22:06.004Z,99904.48
2022-09-24T14:24:40.328Z,99904.48
2022-09-24T14:27:13.262Z,99915.02
2022-09-24T14:30:01.691Z,99913.70
2022-09-24T14:32:40.252Z,99913.53
2022-09-24T14:35:29.986Z,99909.84
2022-09-24T14:38:03.854Z,99901.66
2022-09-24T14:40:53.285Z,99905.14
2022-09-24T14:43:27.834Z,99905.95
2022-09-24T14:46:20.045Z,99910.64
2022-09-24T14:48:51.163Z,99904.20
2022-09-24T14:51:30.420Z,99899.12
2022-09-24T14:54:03.499Z,99899.47
2022-09-24T14:56:36.266Z,99896.47
2022-09-24T14:59:09.853Z,99895.63
2022-09-24T15:01:44.289Z,99897.13
2022-09-24T15:04:26.803Z,99900.48
2022-09-24T15:06:57.010Z,99898.64
2022-09-24T15:09:30.734Z,99905.17
2022-09-24T15:12:14.280Z,99896.78
2022-09-24T15:14:48.656Z,99891.27
2022-09-24T15:17:27.026Z,99893.94
2022-09-24T15:19:57.975Z,99896.61
2022-09-24T15:22:30.535Z,99893.44
2022-09-24T15:25:02.866Z,99896.11
2022-09-24T15:27:43.272Z,99897.14
2022-09-24T15:30:17.373Z,99899.29
2022-09-24T15:32:49.449Z,99882.91
2022-09-24T15:35:19.103Z,99882.91
2022-09-24T15:37:49.457Z,99898.98
2022-09-24T15:40:23.964Z,99899.16
2022-09-24T15:42:54.171Z,99893.80
2022-09-24T15:45:25.680Z,99898.80
2022-09-24T15:47:55.404Z,99897.42
2022-09-24T15:50:26.417Z,99895.95
2022-09-24T15:52:59.320Z,99895.95
2022-09-24T15:55:31.361Z,99899.72
2022-09-24T15:58:02.121Z,99903.03
2022-09-24T16:00:31.904Z,99903.66
2022-09-24T16:03:05.042Z,99903.19
2022-09-24T16:05:36.116Z,99897.44
2022-09-24T16:08:07.240Z,99899.00
2022-09-24T16:10:38.291Z,99899.15
2022-09-24T16:13:08.158Z,99899.61
2022-09-24T16:15:38.553Z,99905.84
2022-09-24T16:18:17.702Z,99902.68
2022-09-24T16:20:48.126Z,99907.89
2022-09-24T16:23:18.418Z,99904.28
2022-09-24T16:25:59.193Z,99906.86
2022-09-24T16:28:30.018Z,99904.28
2022-09-24T16:30:58.872Z,99905.41
2022-09-24T16:33:28.306Z,99906.78
2022-09-24T16:35:59.927Z,99909.73
2022-09-24T16:38:29.875Z,99909.73
2022-09-24T16:41:02.790Z,99916.95
2022-09-24T16:43:34.557Z,99916.95
2022-09-24T16:46:07.494Z,99917.66
2022-09-24T16:48:38.209Z,99911.86
2022-09-24T16:51:11.264Z,99912.75
2022-09-24T16:53:43.935Z,99908.02
2022-09-24T16:56:14.306Z,99912.42
2022-09-24T16:58:46.144Z,99908.42
2022-09-24T17:01:18.607Z,99908.42
2022-09-24T17:03:56.889Z,99906.03
2022-09-24T17:06:29.550Z,99904.59
2022-09-24T17:09:17.755Z,99899.20
2022-09-24T17:11:49.554Z,99906.36
2022-09-24T17:14:19.622Z,99908.05
2022-09-24T17:16:49.771Z,99907.66
2022-09-24T17:19:19.329Z,99907.45
2022-09-24T17:21:53.633Z,99909.91
2022-09-24T17:24:23.457Z,99912.48
2022-09-24T17:26:54.358Z,99912.30
2022-09-24T17:29:30.356Z,99915.48
2022-09-24T17:31:56.772Z,99924.03
2022-09-24T17:34:26.812Z,99912.94
2022-09-24T17:36:57.097Z,99925.55
2022-09-24T17:39:27.831Z,99929.00
2022-09-24T17:41:57.981Z,99929.00
2022-09-24T17:44:27.792Z,99929.26
2022-09-24T17:46:58.014Z,99928.52
2022-09-24T17:49:28.842Z,99929.72
2022-09-24T17:52:00.500Z,99934.67
2022-09-24T17:54:30.417Z,99937.81
2022-09-24T17:57:01.289Z,99940.16
2022-09-24T17:59:31.257Z,99939.20
2022-09-24T18:02:03.888Z,99945.83
2022-09-24T18:04:35.634Z,99942.47
2022-09-24T18:07:05.899Z,99946.23
2022-09-24T18:09:43.350Z,99948.28
2022-09-24T18:12:17.078Z,99947.92
2022-09-24T18:14:45.746Z,99951.33
2022-09-24T18:17:15.661Z,99954.20
2022-09-24T18:19:45.752Z,99958.53
2022-09-24T18:22:15.526Z,99957.54
2022-09-24T18:24:46.092Z,99952.99
2022-09-24T18:27:16.136Z,99960.69
2022-09-24T18:29:46.548Z,99962.59
2022-09-24T18:32:18.627Z,99960.80
2022-09-24T18:34:48.547Z,99960.08
2022-09-24T18:37:18.047Z,99953.91
2022-09-24T18:39:47.907Z,99949.61
2022-09-24T18:42:18.724Z,99954.03
2022-09-24T18:44:51.673Z,99957.14
2022-09-24T18:47:21.314Z,99960.01
2022-09-24T18:49:51.744Z,99960.02
2022-09-24T18:52:21.750Z,99960.22
2022-09-24T18:54:51.846Z,99959.47
2022-09-24T18:57:22.798Z,99952.25
2022-09-24T18:59:52.824Z,99952.59
2022-09-24T19:02:26.034Z,99953.07
2022-09-24T19:04:54.956Z,99949.70
2022-09-24T19:07:26.555Z,99953.75
2022-09-24T19:09:56.366Z,99954.33
2022-09-24T19:12:29.835Z,99953.61
2022-09-24T19:15:01.581Z,99955.14
2022-09-24T19:17:30.358Z,99953.42
2022-09-24T19:20:00.369Z,99953.50
2022-09-24T19:22:33.773Z,99958.19
2022-09-24T19:25:04.657Z,99952.14
2022-09-24T19:27:34.966Z,99955.22
2022-09-24T19:30:13.199Z,99959.64
2022-09-24T19:32:43.373Z,99964.77
2022-09-24T19:35:14.284Z,99968.90
2022-09-24T19:37:44.248Z,99968.90
2022-09-24T19:40:14.231Z,99975.34
2022-09-24T19:42:44.110Z,99972.05
2022-09-24T19:45:13.675Z,99968.75
2022-09-24T19:47:44.765Z,99963.59
2022-09-24T19:50:18.018Z,99971.34
2022-09-24T19:52:48.989Z,99970.50
2022-09-24T19:55:18.842Z,99969.08
2022-09-24T19:57:48.646Z,99969.87
2022-09-24T20:00:21.144Z,99969.71
2022-09-24T20:02:52.009Z,99974.86
2022-09-24T20:05:21.940Z,99976.39
2022-09-24T20:07:51.828Z,99975.55
2022-09-24T20:10:21.628Z,99980.08
2022-09-24T20:12:53.144Z,99980.87
2022-09-24T20:15:22.495Z,99980.23
2022-09-24T20:17:53.616Z,99983.34
2022-09-24T20:20:24.168Z,99976.02
2022-09-24T20:22:54.448Z,99974.56
2022-09-24T20:25:26.922Z,99975.27
2022-09-24T20:27:56.812Z,99974.30
2022-09-24T20:30:27.086Z,99977.14
2022-09-24T20:32:58.071Z,99978.45
2022-09-24T20:35:28.372Z,99978.83
2022-09-24T20:37:58.451Z,99970.66
2022-09-24T20:40:28.888Z,99975.34
2022-09-24T20:42:58.876Z,99974.98
2022-09-24T20:45:28.726Z,99974.98
2022-09-24T20:47:58.608Z,99963.70
2022-09-24T20:50:28.553Z,99966.91
2022-09-24T20:53:00.537Z,99968.91
2022-09-24T20:55:31.020Z,99971.00
2022-09-24T20:58:00.977Z,99967.77
2022-09-24T21:00:32.402Z,99971.92
2022-09-24T21:03:19.910Z,99969.13
2022-09-24T21:05:37.282Z,99964.16
2022-09-24T21:08:08.906Z,99966.16
2022-09-24T21:10:38.858Z,99968.89
2022-09-24T21:13:09.629Z,99971.52
2022-09-24T21:15:40.881Z,99969.66
2022-09-24T21:18:22.695Z,99973.11
2022-09-24T21:20:45.382Z,99970.95
2022-09-24T21:23:15.182Z,99970.70
2022-09-24T21:26:00.208Z,99965.54
2022-09-24T21:28:16.488Z,99965.59
2022-09-24T21:30:49.337Z,99968.23
2022-09-24T21:33:21.076Z,99960.73
2022-09-24T21:35:50.863Z,99954.48
2022-09-24T21:38:20.669Z,99961.39
2022-09-24T21:40:56.935Z,99961.20
2022-09-24T21:43:33.834Z,99960.56
2022-09-24T21:46:05.507Z,99958.97
2022-09-24T21:48:35.755Z,99958.47
2022-09-24T21:51:08.851Z,99958.81
2022-09-24T21:53:39.111Z,99950.30
2022-09-24T21:56:09.487Z,99952.38
2022-09-24T21:58:39.421Z,99955.48
2022-09-24T22:01:17.692Z,99955.48
2022-09-24T22:03:48.135Z,99958.31
2022-09-24T22:06:17.986Z,99955.53
2022-09-24T22:08:47.797Z,99954.31
2022-09-24T22:11:17.915Z,99963.33
2022-09-24T22:13:47.876Z,99967.66
2022-09-24T22:16:17.782Z,99967.66
2022-09-24T22:18:49.816Z,99964.09
2022-09-24T22:21:20.172Z,99964.09
2022-09-24T22:23:50.437Z,99962.97
2022-09-24T22:26:20.775Z,99959.48
2022-09-24T22:28:50.958Z,99959.48
2022-09-24T22:31:20.842Z,99955.36
2022-09-24T22:34:08.384Z,99955.36
2022-09-24T22:36:38.469Z,99959.30
2022-09-24T22:39:08.715Z,99949.35
2022-09-24T22:41:42.648Z,99949.35
2022-09-24T22:44:13.445Z,99943.90
2022-09-24T22:46:43.285Z,99947.09
2022-09-24T22:49:13.217Z,99945.22
2022-09-24T22:51:42.916Z,99943.62
2022-09-24T22:54:13.484Z,99947.28
2022-09-24T22:56:44.626Z,99941.31
2022-09-24T22:59:14.794Z,99944.12
2022-09-24T23:01:45.696Z,99942.63
2022-09-24T23:04:15.536Z,99941.13
2022-09-24T23:06:45.328Z,99935.77
2022-09-24T23:09:14.879Z,99937.66
2022-09-24T23:11:44.933Z,99937.19
2022-09-24T23:14:16.692Z,99936.43
2022-09-24T23:16:46.949Z,99935.77
2022-09-24T23:19:20.135Z,99936.34
2022-09-24T23:21:49.914Z,99933.42
2022-09-24T23:24:22.100Z,99939.34
2022-09-24T23:26:51.879Z,99939.63
2022-09-24T23:29:21.650Z,99936.43
2022-09-24T23:31:51.450Z,99938.13
2022-09-24T23:34:21.110Z,99941.78
2022-09-24T23:36:50.893Z,99928.73
2022-09-24T23:39:20.714Z,99928.73
2022-09-24T23:41:50.766Z,99926.06
2022-09-24T23:44:20.561Z,99925.87
2022-09-24T23:46:50.400Z,99924.64
2022-09-24T23:49:20.184Z,99925.30
2022-09-24T23:51:49.985Z,99925.30
2022-09-24T23:54:20.513Z,99928.02
2022-09-24T23:56:51.551Z,99928.02
2022-09-24T23:59:21.648Z,99928.22
